Time;durP1;ratioP1;P1;durP2;ratioP2;P2;SDS_P1;SDS_P2;PMS_P1;PMS_P2;Temp;Humidity;BMP_temperature;BMP_pressure;BME280_temperature;BME280_humidity;BME280_pressure;Samples;Min_cycle;Max_cycle;Signal;HPM_P1;HPM_P2
2021/12/15 00:01:26;;;;;;;92.60;40.80;;;;;;;;;;5026950;28;20036;-86
2021/12/15 00:03:56;;;;;;;94.45;40.42;;;;;;;;;;5013739;28;20103;-86
2021/12/15 00:06:24;;;;;;;86.85;40.92;;;;;;;;;;5032139;28;20041;-85
2021/12/15 00:08:51;;;;;;;84.00;39.60;;;;;;;;;;5002793;28;20041;-85
2021/12/15 00:11:26;;;;;;;93.72;41.60;;;;;;;;;;5051313;28;20044;-86
2021/12/15 00:13:57;;;;;;;91.00;42.35;;;;;;;;;;5020613;28;20111;-87
2021/12/15 00:16:26;;;;;;;94.93;42.10;;;;;;;;;;5016922;28;20277;-86
2021/12/15 00:18:52;;;;;;;89.00;39.72;;;;;;;;;;5023936;28;20119;-87
2021/12/15 00:21:20;;;;;;;87.68;40.78;;;;;;;;;;5022129;28;20067;-85
2021/12/15 00:23:47;;;;;;;91.13;41.58;;;;;;;;;;5023027;28;20052;-86
2021/12/15 00:26:15;;;;;;;87.43;41.30;;;;;;;;;;4998615;28;20052;-86
2021/12/15 00:28:43;;;;;;;81.68;42.25;;;;;;;;;;5032602;28;20049;-86
2021/12/15 00:31:11;;;;;;;89.40;41.92;;;;;;;;;;5014062;28;20049;-87
2021/12/15 00:33:38;;;;;;;90.82;41.88;;;;;;;;;;5032209;28;20057;-87
2021/12/15 00:36:05;;;;;;;82.85;41.50;;;;;;;;;;5026618;28;20128;-86
2021/12/15 00:38:32;;;;;;;84.13;41.13;;;;;;;;;;5048058;28;20131;-86
2021/12/15 00:41:13;;;;;;;82.43;40.22;;;;;;;;;;4998117;28;20067;-86
2021/12/15 00:43:39;;;;;;;79.90;40.78;;;;;;;;;;5000199;28;20065;-86
2021/12/15 00:46:07;;;;;;;79.93;41.40;;;;;;;;;;5005744;28;20372;-86
2021/12/15 00:48:33;;;;;;;83.88;41.20;;;;;;;;;;5003617;28;20061;-86
2021/12/15 00:50:59;;;;;;;77.72;39.53;;;;;;;;;;4985502;28;20038;-86
2021/12/15 00:53:27;;;;;;;78.53;39.80;;;;;;;;;;4997715;28;20131;-86
2021/12/15 00:55:54;;;;;;;72.78;37.17;;;;;;;;;;4982047;28;20049;-87
2021/12/15 00:58:20;;;;;;;77.00;38.05;;;;;;;;;;4994951;28;20072;-86
2021/12/15 01:00:48;;;;;;;74.65;38.95;;;;;;;;;;4995517;28;20057;-87
2021/12/15 01:03:15;;;;;;;83.85;40.72;;;;;;;;;;4966091;28;20043;-86
2021/12/15 01:05:44;;;;;;;81.15;38.70;;;;;;;;;;4998475;28;20488;-86
2021/12/15 01:08:11;;;;;;;87.18;39.50;;;;;;;;;;4973416;28;20053;-87
2021/12/15 01:11:07;;;;;;;79.43;40.20;;;;;;;;;;4983457;28;20052;-86
2021/12/15 01:21:59;;;;;;;81.93;39.47;;;;;;;;;;5035118;28;20052;-87
2021/12/15 01:24:26;;;;;;;80.00;39.00;;;;;;;;;;5013827;28;20048;-86
2021/12/15 01:26:53;;;;;;;81.57;39.25;;;;;;;;;;5034550;28;20044;-86
2021/12/15 01:29:19;;;;;;;79.95;38.50;;;;;;;;;;5009060;28;20079;-86
2021/12/15 01:32:01;;;;;;;79.22;39.55;;;;;;;;;;4958600;28;20129;-85
2021/12/15 01:34:28;;;;;;;79.80;40.25;;;;;;;;;;4966686;28;20144;-86
2021/12/15 01:36:57;;;;;;;81.03;40.22;;;;;;;;;;4990074;28;20471;-86
2021/12/15 01:39:24;;;;;;;78.57;38.70;;;;;;;;;;4985645;28;20649;-86
2021/12/15 01:41:54;;;;;;;73.60;36.75;;;;;;;;;;4976089;28;20124;-87
2021/12/15 01:49:38;;;;;;;76.22;37.42;;;;;;;;;;4970948;28;20140;-86
2021/12/15 01:52:18;;;;;;;74.40;37.28;;;;;;;;;;4982752;28;20480;-86
2021/12/15 01:54:45;;;;;;;74.78;36.15;;;;;;;;;;4959299;28;20060;-86
2021/12/15 01:57:12;;;;;;;80.57;35.72;;;;;;;;;;4953294;28;20042;-86
2021/12/15 01:59:38;;;;;;;73.15;36.95;;;;;;;;;;4989946;28;20049;-86
2021/12/15 02:02:05;;;;;;;78.68;37.35;;;;;;;;;;4976110;28;20465;-85
2021/12/15 02:04:33;;;;;;;69.82;35.40;;;;;;;;;;5028725;28;20060;-86
2021/12/15 02:06:59;;;;;;;65.72;33.60;;;;;;;;;;5032701;28;20063;-86
2021/12/15 02:10:14;;;;;;;73.78;35.03;;;;;;;;;;5045119;28;20103;-86
2021/12/15 02:12:19;;;;;;;69.18;33.70;;;;;;;;;;5022258;28;20073;-86
2021/12/15 02:14:46;;;;;;;66.15;33.83;;;;;;;;;;5031021;28;20530;-86
2021/12/15 02:17:13;;;;;;;75.25;35.92;;;;;;;;;;5027111;28;20037;-86
2021/12/15 02:19:40;;;;;;;72.72;33.78;;;;;;;;;;5029571;28;20602;-87
2021/12/15 02:22:18;;;;;;;67.22;33.58;;;;;;;;;;5044595;28;20087;-86
2021/12/15 02:24:49;;;;;;;78.63;34.60;;;;;;;;;;5033832;28;20086;-86
2021/12/15 02:27:15;;;;;;;75.55;35.55;;;;;;;;;;5031431;28;20044;-86
2021/12/15 02:29:45;;;;;;;77.10;35.20;;;;;;;;;;5033414;28;20128;-86
2021/12/15 02:32:37;;;;;;;77.55;36.10;;;;;;;;;;5032890;28;20073;-86
2021/12/15 02:38:03;;;;;;;73.97;35.00;;;;;;;;;;5010667;28;20071;-86
2021/12/15 02:40:32;;;;;;;69.85;33.60;;;;;;;;;;5031848;28;20091;-87
2021/12/15 02:42:59;;;;;;;70.03;34.08;;;;;;;;;;5020976;28;20052;-86
2021/12/15 02:45:43;;;;;;;67.97;33.65;;;;;;;;;;5034257;28;20049;-86
2021/12/15 02:48:13;;;;;;;77.32;34.25;;;;;;;;;;5017117;28;20446;-86
2021/12/15 02:50:39;;;;;;;71.10;33.75;;;;;;;;;;5019210;28;20553;-87
2021/12/15 02:53:07;;;;;;;73.13;34.78;;;;;;;;;;5017740;28;20559;-86
2021/12/15 02:55:37;;;;;;;67.47;34.15;;;;;;;;;;5036094;28;20116;-85
2021/12/15 02:58:06;;;;;;;73.77;34.10;;;;;;;;;;5017808;28;20048;-86
2021/12/15 03:00:47;;;;;;;71.35;33.40;;;;;;;;;;5034947;28;20136;-86
2021/12/15 03:03:46;;;;;;;67.97;34.25;;;;;;;;;;5016731;28;20048;-87
2021/12/15 03:06:14;;;;;;;;;;;;;;;;;;5027222;28;20052;-87
2021/12/15 03:09:16;;;;;;;70.65;33.22;;;;;;;;;;5040282;28;19923;-87
2021/12/15 03:17:29;;;;;;;67.82;33.50;;;;;;;;;;4994483;28;20046;-86
2021/12/15 03:19:56;;;;;;;74.65;34.00;;;;;;;;;;4980294;28;20045;-85
2021/12/15 03:22:23;;;;;;;73.90;34.85;;;;;;;;;;4960388;28;20695;-85
2021/12/15 03:24:50;;;;;;;79.00;35.28;;;;;;;;;;4965003;28;20041;-85
2021/12/15 03:27:22;;;;;;;72.65;33.60;;;;;;;;;;4956185;28;20559;-85
2021/12/15 03:35:45;;;;;;;73.00;34.65;;;;;;;;;;4976480;28;20140;-86
2021/12/15 03:38:09;;;;;;;74.18;35.55;;;;;;;;;;4973851;28;20559;-85
2021/12/15 03:40:40;;;;;;;76.68;35.22;;;;;;;;;;4991511;28;20046;-86
2021/12/15 03:43:11;;;;;;;83.05;37.30;;;;;;;;;;4953000;28;20045;-86
2021/12/15 03:45:57;;;;;;;81.43;36.55;;;;;;;;;;5003178;28;20033;-86
2021/12/15 03:48:26;;;;;;;75.13;35.60;;;;;;;;;;4991637;28;20046;-86
2021/12/15 03:50:53;;;;;;;86.53;38.05;;;;;;;;;;4995646;28;20076;-86
2021/12/15 03:53:19;;;;;;;81.97;36.78;;;;;;;;;;5007493;28;20041;-86
2021/12/15 03:55:46;;;;;;;81.90;37.25;;;;;;;;;;4994001;28;20053;-87
2021/12/15 03:58:13;;;;;;;83.32;37.05;;;;;;;;;;4993470;28;21947;-86
2021/12/15 04:00:42;;;;;;;87.43;36.45;;;;;;;;;;4996316;28;20041;-86
2021/12/15 04:03:08;;;;;;;;;;;;;;;;;;4999734;28;20069;-86
2021/12/15 04:05:34;;;;;;;80.38;37.63;;;;;;;;;;4999434;28;20009;-86
2021/12/15 04:08:02;;;;;;;77.10;37.97;;;;;;;;;;5012234;28;20056;-86
2021/12/15 04:10:32;;;;;;;81.30;37.80;;;;;;;;;;4998402;28;20069;-86
2021/12/15 04:12:59;;;;;;;82.63;38.75;;;;;;;;;;4966215;28;20045;-86
2021/12/15 04:15:30;;;;;;;81.63;37.60;;;;;;;;;;4996629;28;20041;-86
2021/12/15 04:17:58;;;;;;;83.10;39.03;;;;;;;;;;4981705;28;20044;-86
2021/12/15 04:20:26;;;;;;;83.97;39.33;;;;;;;;;;5031192;28;20485;-85
2021/12/15 04:22:56;;;;;;;84.25;38.33;;;;;;;;;;5056758;28;20053;-86
2021/12/15 04:25:24;;;;;;;87.35;41.15;;;;;;;;;;5018062;28;20223;-85
2021/12/15 04:27:53;;;;;;;80.85;38.63;;;;;;;;;;5020761;28;20040;-85
2021/12/15 04:30:19;;;;;;;86.85;39.65;;;;;;;;;;5018779;28;20044;-85
2021/12/15 04:47:32;;;;;;;85.18;42.42;;;;;;;;;;5031985;28;20119;-86
2021/12/15 04:54:26;;;;;;;83.85;41.40;;;;;;;;;;5030921;28;20099;-86
2021/12/15 05:44:09;;;;;;;85.80;42.63;;;;;;;;;;4864801;29;20098;-86
2021/12/15 05:53:04;;;;;;;94.05;45.60;;;;;;;;;;5035431;28;20052;-81
2021/12/15 05:55:30;;;;;;;85.78;42.92;;;;;;;;;;5020049;28;20132;-81
2021/12/15 05:57:56;;;;;;;87.70;42.80;;;;;;;;;;5041698;28;20578;-81
2021/12/15 06:00:25;;;;;;;85.38;43.33;;;;;;;;;;5018117;28;20480;-81
2021/12/15 06:02:51;;;;;;;;;;;;;;;;;;5028796;28;20050;-80
2021/12/15 06:05:17;;;;;;;79.55;40.72;;;;;;;;;;5008856;28;19924;-81
2021/12/15 06:07:43;;;;;;;89.20;44.40;;;;;;;;;;5014084;28;20049;-81
2021/12/15 06:10:10;;;;;;;78.32;41.42;;;;;;;;;;4983902;28;20179;-81
2021/12/15 06:12:36;;;;;;;85.78;43.70;;;;;;;;;;4997960;28;20504;-81
2021/12/15 06:15:02;;;;;;;89.60;44.05;;;;;;;;;;4995557;28;20036;-81
2021/12/15 06:17:28;;;;;;;84.60;44.03;;;;;;;;;;5011887;28;20452;-82
2021/12/15 06:19:54;;;;;;;92.93;46.20;;;;;;;;;;5009123;28;20052;-80
2021/12/15 06:22:26;;;;;;;82.88;43.42;;;;;;;;;;4991708;28;20096;-81
2021/12/15 06:24:54;;;;;;;83.53;42.67;;;;;;;;;;5010333;28;20392;-80
2021/12/15 06:27:21;;;;;;;85.95;44.97;;;;;;;;;;4994367;28;20056;-81
2021/12/15 06:29:47;;;;;;;83.55;42.55;;;;;;;;;;4998264;28;20049;-81
2021/12/15 06:32:13;;;;;;;82.53;43.38;;;;;;;;;;4978045;28;20045;-81
2021/12/15 06:34:39;;;;;;;83.47;43.20;;;;;;;;;;5029692;28;20391;-81
2021/12/15 06:37:06;;;;;;;80.72;44.58;;;;;;;;;;5024869;28;20147;-81
2021/12/15 06:39:32;;;;;;;82.30;43.85;;;;;;;;;;4979912;28;22200;-80
2021/12/15 06:42:06;;;;;;;77.15;42.00;;;;;;;;;;4995539;28;20041;-82
2021/12/15 06:44:36;;;;;;;91.45;44.90;;;;;;;;;;4984426;28;22658;-81
2021/12/15 07:00:27;;;;;;;82.95;43.38;;;;;;;;;;5005824;28;20107;-81
2021/12/15 07:02:53;;;;;;;84.43;45.57;;;;;;;;;;4976206;28;20076;-81
2021/12/15 07:05:20;;;;;;;84.78;43.40;;;;;;;;;;5004963;28;20045;-80
2021/12/15 07:07:46;;;;;;;80.95;43.38;;;;;;;;;;5000078;28;20049;-81
2021/12/15 07:10:13;;;;;;;79.85;41.85;;;;;;;;;;4975711;28;20423;-82
2021/12/15 07:12:39;;;;;;;88.38;44.75;;;;;;;;;;4993330;28;20049;-82
2021/12/15 07:15:06;;;;;;;79.25;43.15;;;;;;;;;;4990573;28;20125;-82
2021/12/15 07:17:35;;;;;;;83.25;43.92;;;;;;;;;;5012319;28;20052;-82
2021/12/15 07:22:43;;;;;;;85.13;43.60;;;;;;;;;;5011318;28;20462;-82
2021/12/15 07:25:10;;;;;;;79.28;42.33;;;;;;;;;;4990222;28;20227;-82
2021/12/15 07:27:41;;;;;;;76.85;42.03;;;;;;;;;;4978012;28;20059;-82
2021/12/15 07:30:20;;;;;;;79.32;41.42;;;;;;;;;;4994444;28;20174;-82
2021/12/15 07:32:47;;;;;;;80.60;42.15;;;;;;;;;;4980534;28;20684;-82
2021/12/15 07:35:13;;;;;;;76.15;40.33;;;;;;;;;;4990973;28;20091;-83
2021/12/15 07:37:39;;;;;;;76.80;40.22;;;;;;;;;;4984248;28;20055;-79
2021/12/15 07:40:07;;;;;;;74.47;40.38;;;;;;;;;;5010019;28;20103;-77
2021/12/15 07:42:42;;;;;;;74.00;40.33;;;;;;;;;;5016485;28;20036;-79
2021/12/15 07:45:10;;;;;;;75.75;40.83;;;;;;;;;;4993228;28;20073;-79
2021/12/15 07:47:36;;;;;;;67.88;39.15;;;;;;;;;;5014822;28;20053;-78
2021/12/15 07:50:06;;;;;;;79.10;39.92;;;;;;;;;;4981473;28;20048;-78
2021/12/15 07:52:32;;;;;;;74.15;39.40;;;;;;;;;;5001771;28;20599;-78
2021/12/15 07:54:58;;;;;;;69.82;39.53;;;;;;;;;;5013201;28;20420;-79
2021/12/15 07:57:28;;;;;;;75.03;40.92;;;;;;;;;;4981868;28;20045;-78
2021/12/15 07:59:56;;;;;;;75.35;39.03;;;;;;;;;;5010056;28;20120;-78
2021/12/15 08:02:23;;;;;;;67.70;38.95;;;;;;;;;;5007369;28;20592;-80
2021/12/15 08:04:49;;;;;;;73.28;38.53;;;;;;;;;;5025444;28;20110;-80
2021/12/15 08:07:15;;;;;;;70.65;38.00;;;;;;;;;;4997322;28;20060;-79
2021/12/15 08:09:42;;;;;;;72.55;38.22;;;;;;;;;;4997778;28;20502;-80
2021/12/15 08:12:08;;;;;;;69.60;37.28;;;;;;;;;;5008685;28;20396;-80
2021/12/15 08:14:34;;;;;;;67.78;36.75;;;;;;;;;;4999054;28;20045;-80
2021/12/15 08:17:00;;;;;;;61.13;35.08;;;;;;;;;;4986615;28;20086;-79
2021/12/15 08:19:26;;;;;;;67.53;36.42;;;;;;;;;;5031445;28;20356;-79
2021/12/15 08:21:52;;;;;;;64.45;35.03;;;;;;;;;;5006153;28;20048;-79
2021/12/15 08:24:19;;;;;;;63.55;35.83;;;;;;;;;;5018450;28;20498;-79
2021/12/15 08:26:45;;;;;;;63.28;35.70;;;;;;;;;;5005588;28;20041;-80
2021/12/15 08:29:11;;;;;;;66.13;35.45;;;;;;;;;;4990635;28;20168;-79
2021/12/15 08:31:37;;;;;;;64.70;35.75;;;;;;;;;;4986955;28;20045;-79
2021/12/15 08:34:03;;;;;;;61.53;34.25;;;;;;;;;;4993454;28;20060;-79
2021/12/15 08:36:30;;;;;;;62.85;35.13;;;;;;;;;;5000273;28;20053;-79
2021/12/15 08:38:56;;;;;;;61.28;34.75;;;;;;;;;;4995721;28;20133;-80
2021/12/15 08:41:26;;;;;;;61.42;34.40;;;;;;;;;;4995500;28;20037;-77
2021/12/15 08:43:52;;;;;;;63.47;33.40;;;;;;;;;;4983720;28;20491;-80
2021/12/15 08:46:19;;;;;;;61.63;34.30;;;;;;;;;;4989965;28;20385;-78
2021/12/15 08:48:46;;;;;;;59.95;33.65;;;;;;;;;;5014253;28;20053;-78
2021/12/15 08:51:12;;;;;;;58.63;33.10;;;;;;;;;;4996952;28;20041;-80
2021/12/15 08:53:39;;;;;;;62.15;34.97;;;;;;;;;;5002040;28;20045;-79
2021/12/15 08:56:05;;;;;;;59.63;34.63;;;;;;;;;;5013241;28;20040;-79
2021/12/15 08:58:31;;;;;;;62.70;35.78;;;;;;;;;;5015022;28;20041;-80
2021/12/15 09:00:58;;;;;;;65.32;33.72;;;;;;;;;;5030329;28;20136;-80
2021/12/15 09:03:24;;;;;;;57.50;34.10;;;;;;;;;;5017905;28;20128;-80
2021/12/15 09:05:52;;;;;;;58.60;33.45;;;;;;;;;;5028724;28;20112;-80
2021/12/15 09:08:18;;;;;;;63.55;33.88;;;;;;;;;;4994734;28;20436;-79
2021/12/15 09:10:45;;;;;;;56.60;32.10;;;;;;;;;;4986394;28;20052;-79
2021/12/15 09:13:11;;;;;;;61.13;33.70;;;;;;;;;;4998787;28;20072;-79
2021/12/15 09:15:38;;;;;;;60.80;33.58;;;;;;;;;;5036321;28;20048;-79
2021/12/15 09:18:04;;;;;;;59.60;32.90;;;;;;;;;;4984954;28;20041;-80
2021/12/15 09:20:31;;;;;;;61.40;32.13;;;;;;;;;;4992950;28;20088;-79
2021/12/15 09:22:57;;;;;;;58.63;33.38;;;;;;;;;;5009351;28;20048;-80
2021/12/15 09:25:23;;;;;;;61.60;33.50;;;;;;;;;;5035113;28;22073;-79
2021/12/15 09:27:49;;;;;;;55.88;31.83;;;;;;;;;;5010937;28;20068;-80
2021/12/15 09:30:16;;;;;;;57.95;32.85;;;;;;;;;;5021358;28;20055;-79
2021/12/15 09:32:42;;;;;;;57.50;33.43;;;;;;;;;;5007959;28;20042;-79
2021/12/15 09:35:09;;;;;;;56.10;33.10;;;;;;;;;;5003228;28;20049;-79
2021/12/15 09:37:35;;;;;;;55.95;32.47;;;;;;;;;;5027480;28;20041;-80
2021/12/15 09:40:01;;;;;;;52.63;32.50;;;;;;;;;;4990897;28;20045;-80
2021/12/15 09:42:33;;;;;;;56.55;33.90;;;;;;;;;;5006018;28;20053;-79
2021/12/15 09:45:15;;;;;;;46.72;30.35;;;;;;;;;;4996661;28;20068;-77
2021/12/15 09:47:58;;;;;;;53.53;31.02;;;;;;;;;;4994619;28;20044;-80
2021/12/15 10:04:22;;;;;;;47.67;29.75;;;;;;;;;;5021856;28;20056;-79
2021/12/15 10:17:42;;;;;;;47.58;26.98;;;;;;;;;;4997300;28;20504;-79
2021/12/15 10:20:09;;;;;;;46.55;27.77;;;;;;;;;;4992877;28;20045;-79
2021/12/15 10:22:44;;;;;;;44.35;27.10;;;;;;;;;;4999061;28;20049;-79
2021/12/15 10:25:10;;;;;;;49.38;26.33;;;;;;;;;;4982086;28;20069;-79
2021/12/15 10:27:46;;;;;;;41.88;25.15;;;;;;;;;;5015801;28;20324;-80
2021/12/15 10:30:15;;;;;;;40.53;26.60;;;;;;;;;;4998644;28;20855;-80
2021/12/15 10:32:42;;;;;;;46.65;25.98;;;;;;;;;;5011770;28;20036;-80
2021/12/15 10:35:12;;;;;;;41.22;25.20;;;;;;;;;;4986961;28;20467;-80
2021/12/15 10:37:39;;;;;;;44.78;26.90;;;;;;;;;;4989402;28;20049;-80
2021/12/15 10:40:20;;;;;;;41.58;25.88;;;;;;;;;;5004055;28;20048;-80
2021/12/15 10:42:47;;;;;;;42.03;25.52;;;;;;;;;;5011783;28;20036;-80
2021/12/15 10:45:13;;;;;;;38.67;25.13;;;;;;;;;;4987496;28;20139;-80
2021/12/15 10:47:40;;;;;;;45.67;25.45;;;;;;;;;;4998184;28;20044;-80
2021/12/15 10:50:06;;;;;;;38.00;24.98;;;;;;;;;;4984832;28;20051;-80
2021/12/15 10:52:34;;;;;;;37.92;24.88;;;;;;;;;;5001165;28;20053;-80
2021/12/15 10:55:03;;;;;;;41.65;24.80;;;;;;;;;;5010394;28;20065;-80
2021/12/15 10:57:30;;;;;;;42.00;25.13;;;;;;;;;;4982977;28;20051;-80
2021/12/15 10:59:56;;;;;;;38.80;24.65;;;;;;;;;;4996153;28;20037;-80
2021/12/15 11:02:24;;;;;;;39.38;23.60;;;;;;;;;;5006505;28;24326;-80
2021/12/15 11:04:51;;;;;;;;;;;;;;;;;;4994966;28;20067;-79
2021/12/15 11:07:30;;;;;;;35.45;22.80;;;;;;;;;;5013903;28;19917;-80
2021/12/15 11:09:58;;;;;;;34.60;23.63;;;;;;;;;;5028256;28;20108;-80
2021/12/15 11:12:37;;;;;;;39.10;22.77;;;;;;;;;;5008739;28;20048;-80
2021/12/15 11:15:25;;;;;;;34.88;23.25;;;;;;;;;;5003667;28;20080;-80
2021/12/15 11:17:55;;;;;;;32.60;21.85;;;;;;;;;;5025802;28;20056;-79
2021/12/15 11:20:28;;;;;;;32.08;21.83;;;;;;;;;;4988274;28;20045;-80
2021/12/15 11:22:55;;;;;;;37.83;21.13;;;;;;;;;;5012112;28;20051;-80
2021/12/15 11:25:24;;;;;;;33.80;20.90;;;;;;;;;;5007429;28;20388;-80
2021/12/15 11:28:00;;;;;;;35.00;20.63;;;;;;;;;;5011462;28;20040;-80
2021/12/15 11:30:29;;;;;;;36.53;21.35;;;;;;;;;;5017219;28;20052;-80
2021/12/15 11:32:57;;;;;;;28.20;20.27;;;;;;;;;;5010935;28;20045;-80
2021/12/15 11:35:24;;;;;;;30.52;19.98;;;;;;;;;;5018128;28;22917;-79
2021/12/15 11:37:50;;;;;;;30.38;20.17;;;;;;;;;;5004874;28;20048;-80
2021/12/15 11:40:17;;;;;;;30.05;18.50;;;;;;;;;;4996339;28;20431;-80
2021/12/15 11:42:43;;;;;;;27.20;19.25;;;;;;;;;;4985373;28;20041;-80
2021/12/15 11:45:10;;;;;;;29.27;19.75;;;;;;;;;;5017126;28;20041;-79
2021/12/15 11:47:37;;;;;;;32.42;20.75;;;;;;;;;;4988433;28;20052;-80
2021/12/15 11:50:13;;;;;;;27.35;17.90;;;;;;;;;;5015201;28;20056;-80
2021/12/15 11:52:43;;;;;;;31.02;18.80;;;;;;;;;;5017060;28;20053;-80
2021/12/15 11:55:24;;;;;;;30.48;18.92;;;;;;;;;;4994738;28;20060;-80
2021/12/15 11:57:50;;;;;;;25.52;17.75;;;;;;;;;;4982248;28;20072;-80
2021/12/15 12:00:16;;;;;;;24.77;16.63;;;;;;;;;;4998989;28;20040;-80
2021/12/15 12:02:43;;;;;;;26.98;15.27;;;;;;;;;;4999071;28;20435;-81
2021/12/15 12:05:10;;;;;;;23.38;14.98;;;;;;;;;;4977564;28;20060;-79
2021/12/15 12:07:37;;;;;;;24.63;14.20;;;;;;;;;;4999869;28;20100;-80
2021/12/15 12:10:10;;;;;;;23.73;13.98;;;;;;;;;;4982953;28;20041;-79
2021/12/15 12:12:40;;;;;;;21.08;14.07;;;;;;;;;;5010031;28;20041;-80
2021/12/15 12:15:08;;;;;;;26.42;14.98;;;;;;;;;;4994080;28;20512;-79
2021/12/15 12:17:35;;;;;;;22.95;16.20;;;;;;;;;;4997263;28;20472;-80
2021/12/15 12:20:03;;;;;;;26.70;17.10;;;;;;;;;;4993309;28;20045;-80
2021/12/15 12:22:30;;;;;;;27.98;16.90;;;;;;;;;;4989134;28;20045;-80
2021/12/15 12:24:57;;;;;;;28.33;17.88;;;;;;;;;;5004991;28;20107;-79
2021/12/15 12:27:24;;;;;;;28.45;18.27;;;;;;;;;;4996072;28;20590;-79
2021/12/15 12:29:51;;;;;;;28.52;19.08;;;;;;;;;;4995986;28;20044;-79
2021/12/15 12:32:17;;;;;;;32.60;17.50;;;;;;;;;;4986488;28;20071;-79
2021/12/15 12:34:43;;;;;;;27.08;18.30;;;;;;;;;;5008044;28;20075;-78
2021/12/15 12:37:12;;;;;;;29.95;18.23;;;;;;;;;;4992450;28;20340;-78
2021/12/15 12:39:39;;;;;;;29.98;17.58;;;;;;;;;;5028007;28;20207;-78
2021/12/15 12:42:05;;;;;;;30.00;17.83;;;;;;;;;;5005276;28;20033;-78
2021/12/15 12:44:37;;;;;;;28.65;16.10;;;;;;;;;;5017427;28;20542;-78
2021/12/15 12:47:09;;;;;;;26.80;16.40;;;;;;;;;;5018879;28;20055;-78
2021/12/15 13:00:51;;;;;;;22.83;14.20;;;;;;;;;;5032785;28;20059;-78
2021/12/15 13:03:34;;;;;;;23.65;14.98;;;;;;;;;;5007183;28;20041;-78
2021/12/15 13:06:05;;;;;;;21.75;13.88;;;;;;;;;;5021806;28;20036;-78
2021/12/15 13:08:34;;;;;;;21.80;13.98;;;;;;;;;;5042562;28;20412;-78
2021/12/15 13:11:06;;;;;;;26.65;13.32;;;;;;;;;;5042106;28;20047;-79
2021/12/15 13:13:34;;;;;;;22.17;13.93;;;;;;;;;;5028829;28;20549;-79
2021/12/15 13:16:09;;;;;;;23.95;14.15;;;;;;;;;;5038568;28;20040;-78
2021/12/15 13:18:43;;;;;;;27.40;14.60;;;;;;;;;;5035482;28;20041;-78
2021/12/15 13:21:11;;;;;;;24.92;14.18;;;;;;;;;;5020748;28;20056;-79
2021/12/15 13:23:52;;;;;;;21.65;14.23;;;;;;;;;;5004756;28;20172;-78
2021/12/15 13:29:22;;;;;;;17.88;11.23;;;;;;;;;;5030324;28;20056;-78
2021/12/15 13:31:56;;;;;;;15.18;11.52;;;;;;;;;;4988833;28;20064;-78
2021/12/15 13:34:36;;;;;;;20.63;11.57;;;;;;;;;;4992297;28;22066;-77
2021/12/15 13:37:02;;;;;;;18.60;12.02;;;;;;;;;;5013152;28;20041;-77
2021/12/15 13:39:38;;;;;;;18.67;10.18;;;;;;;;;;5012634;28;20037;-78
2021/12/15 13:42:11;;;;;;;10.77;7.53;;;;;;;;;;5032375;28;20048;-78
2021/12/15 13:44:47;;;;;;;15.38;7.60;;;;;;;;;;5014255;28;20383;-77
2021/12/15 13:47:20;;;;;;;12.35;7.55;;;;;;;;;;5006225;28;20045;-78
2021/12/15 13:49:57;;;;;;;11.68;7.63;;;;;;;;;;5036639;28;20051;-78
2021/12/15 13:52:28;;;;;;;11.85;7.22;;;;;;;;;;4987514;28;20467;-78
2021/12/15 13:55:14;;;;;;;10.13;6.60;;;;;;;;;;5009977;28;20045;-78
2021/12/15 13:57:49;;;;;;;11.88;6.40;;;;;;;;;;5021500;28;20038;-78
2021/12/15 14:00:20;;;;;;;14.23;6.47;;;;;;;;;;5010244;28;20049;-77
2021/12/15 14:03:05;;;;;;;10.07;6.03;;;;;;;;;;5007875;28;20045;-78
2021/12/15 14:05:31;;;;;;;11.68;6.55;;;;;;;;;;5024576;28;20179;-78
2021/12/15 14:08:06;;;;;;;11.30;6.20;;;;;;;;;;5022980;28;20049;-78
2021/12/15 14:10:32;;;;;;;13.05;6.43;;;;;;;;;;5025970;28;20049;-78
2021/12/15 14:12:59;;;;;;;11.68;5.95;;;;;;;;;;5023436;28;20052;-79
2021/12/15 14:15:25;;;;;;;9.80;6.10;;;;;;;;;;5002238;28;20049;-77
2021/12/15 14:18:15;;;;;;;12.75;6.50;;;;;;;;;;5010182;28;20060;-78
2021/12/15 14:20:41;;;;;;;11.05;6.55;;;;;;;;;;5015954;28;20041;-78
2021/12/15 14:23:08;;;;;;;12.38;6.45;;;;;;;;;;4996075;28;20049;-79
2021/12/15 14:25:35;;;;;;;10.45;6.20;;;;;;;;;;5022072;28;20142;-78
2021/12/15 14:28:06;;;;;;;12.20;6.63;;;;;;;;;;5007026;28;20053;-78
2021/12/15 14:30:33;;;;;;;18.88;7.07;;;;;;;;;;5004159;28;20311;-78
2021/12/15 14:32:59;;;;;;;9.77;5.78;;;;;;;;;;4992350;28;20049;-78
2021/12/15 14:35:26;;;;;;;10.18;5.53;;;;;;;;;;5006702;28;20049;-79
2021/12/15 14:37:52;;;;;;;9.60;5.90;;;;;;;;;;5003923;28;20507;-78
2021/12/15 14:40:21;;;;;;;13.38;6.07;;;;;;;;;;5013256;28;20496;-78
2021/12/15 14:42:47;;;;;;;10.75;5.50;;;;;;;;;;5001553;28;20033;-78
2021/12/15 14:45:14;;;;;;;9.75;5.00;;;;;;;;;;5020712;28;20140;-78
2021/12/15 14:47:40;;;;;;;11.85;5.07;;;;;;;;;;5003896;28;20504;-78
2021/12/15 14:50:10;;;;;;;7.47;4.43;;;;;;;;;;5006026;28;20080;-78
2021/12/15 14:52:38;;;;;;;7.93;4.53;;;;;;;;;;4996752;28;20132;-78
2021/12/15 14:55:12;;;;;;;9.15;4.63;;;;;;;;;;4992158;28;20133;-78
2021/12/15 14:57:38;;;;;;;10.82;5.43;;;;;;;;;;5010537;28;20100;-79
2021/12/15 15:00:18;;;;;;;7.78;4.82;;;;;;;;;;5025058;28;20048;-78
2021/12/15 15:02:45;;;;;;;11.63;4.95;;;;;;;;;;5003911;28;20057;-78
2021/12/15 15:05:11;;;;;;;9.23;4.45;;;;;;;;;;4998535;28;20053;-82
2021/12/15 15:07:39;;;;;;;9.35;3.60;;;;;;;;;;4999594;28;20044;-80
2021/12/15 15:10:07;;;;;;;7.75;3.75;;;;;;;;;;4981127;28;20152;-80
2021/12/15 15:12:34;;;;;;;4.85;3.17;;;;;;;;;;4995142;28;20452;-79
2021/12/15 15:15:25;;;;;;;4.88;3.08;;;;;;;;;;5017844;28;20098;-80
2021/12/15 15:18:01;;;;;;;7.18;3.25;;;;;;;;;;4999514;28;20104;-80
2021/12/15 15:20:28;;;;;;;5.88;3.20;;;;;;;;;;4994711;28;20083;-80
2021/12/15 15:22:55;;;;;;;6.25;3.33;;;;;;;;;;4996834;28;20513;-79
2021/12/15 15:25:23;;;;;;;8.32;3.67;;;;;;;;;;5000179;28;20045;-79
2021/12/15 15:27:53;;;;;;;11.20;3.72;;;;;;;;;;5000564;28;20373;-79
2021/12/15 15:30:20;;;;;;;8.95;4.25;;;;;;;;;;5008323;28;20462;-79
2021/12/15 15:32:46;;;;;;;7.07;2.70;;;;;;;;;;4995121;28;20542;-79
2021/12/15 15:35:31;;;;;;;7.13;3.05;;;;;;;;;;5019639;28;20046;-78
2021/12/15 15:37:59;;;;;;;4.03;2.72;;;;;;;;;;5018670;28;20484;-79
2021/12/15 15:40:30;;;;;;;7.10;3.67;;;;;;;;;;4981619;28;20040;-79
2021/12/15 15:43:08;;;;;;;6.28;3.03;;;;;;;;;;4998851;28;20047;-78
2021/12/15 15:45:36;;;;;;;4.45;2.28;;;;;;;;;;4991050;28;20049;-79
2021/12/15 15:48:03;;;;;;;8.13;2.30;;;;;;;;;;4984280;28;20076;-79
2021/12/15 15:50:29;;;;;;;6.20;1.60;;;;;;;;;;4989117;28;20314;-79
2021/12/15 15:52:56;;;;;;;4.45;1.65;;;;;;;;;;5004931;28;20128;-80
2021/12/15 15:55:22;;;;;;;3.17;1.50;;;;;;;;;;5004115;28;20120;-79
2021/12/15 15:57:50;;;;;;;4.20;1.75;;;;;;;;;;4992754;28;20127;-79
2021/12/15 16:00:16;;;;;;;5.43;1.90;;;;;;;;;;4992593;28;20129;-82
2021/12/15 16:02:43;;;;;;;2.53;1.83;;;;;;;;;;5013985;28;20096;-80
2021/12/15 16:05:12;;;;;;;3.80;1.75;;;;;;;;;;4974356;28;20080;-80
2021/12/15 16:07:38;;;;;;;4.45;2.05;;;;;;;;;;4993390;28;20049;-79
2021/12/15 16:10:04;;;;;;;5.00;1.80;;;;;;;;;;4979421;28;20053;-79
2021/12/15 16:12:34;;;;;;;5.10;1.83;;;;;;;;;;5012083;28;20108;-79
2021/12/15 16:15:00;;;;;;;4.50;1.80;;;;;;;;;;4980517;28;20053;-79
2021/12/15 16:17:37;;;;;;;8.30;2.67;;;;;;;;;;4989416;28;20046;-80
2021/12/15 16:20:23;;;;;;;4.60;2.17;;;;;;;;;;4990634;28;20037;-80
2021/12/15 16:22:54;;;;;;;3.47;1.90;;;;;;;;;;5014578;28;20041;-80
2021/12/15 16:25:28;;;;;;;4.68;1.80;;;;;;;;;;4987441;28;20400;-79
2021/12/15 16:28:14;;;;;;;4.68;2.22;;;;;;;;;;4991146;28;20045;-79
2021/12/15 16:30:42;;;;;;;2.90;2.38;;;;;;;;;;4995647;28;20050;-80
2021/12/15 16:33:10;;;;;;;4.28;1.98;;;;;;;;;;5005234;28;20060;-79
2021/12/15 16:35:37;;;;;;;3.72;2.20;;;;;;;;;;4990666;28;20079;-79
2021/12/15 16:38:20;;;;;;;4.40;2.50;;;;;;;;;;4991626;28;20048;-81
2021/12/15 16:40:52;;;;;;;7.35;2.40;;;;;;;;;;4996751;28;20041;-81
2021/12/15 16:43:19;;;;;;;6.10;3.47;;;;;;;;;;4991283;28;20104;-80
2021/12/15 16:45:45;;;;;;;5.82;2.40;;;;;;;;;;4998162;28;20610;-83
2021/12/15 16:48:28;;;;;;;5.35;2.45;;;;;;;;;;4996522;28;20060;-84
2021/12/15 16:51:04;;;;;;;5.53;1.95;;;;;;;;;;5015647;28;20046;-84
2021/12/15 16:53:36;;;;;;;3.72;2.08;;;;;;;;;;5017355;28;20135;-84
2021/12/15 16:56:03;;;;;;;5.03;2.20;;;;;;;;;;5017481;28;20132;-84
2021/12/15 16:58:29;;;;;;;4.32;1.75;;;;;;;;;;5012827;28;20059;-84
2021/12/15 17:00:55;;;;;;;5.75;1.98;;;;;;;;;;4996971;28;20448;-85
2021/12/15 17:03:21;;;;;;;4.10;1.77;;;;;;;;;;5010360;28;20094;-84
2021/12/15 17:05:49;;;;;;;2.67;1.90;;;;;;;;;;5015103;28;20116;-84
2021/12/15 17:08:17;;;;;;;2.20;1.75;;;;;;;;;;5007325;28;20069;-83
2021/12/15 17:10:46;;;;;;;3.30;1.92;;;;;;;;;;4993287;28;20041;-84
2021/12/15 17:13:13;;;;;;;4.07;2.00;;;;;;;;;;4993012;28;20049;-84